sensor_id;sensor_type;location;lat;lon;timestamp;temperature;humidity
23540;DHT22;11947;50.810;4.394;2023-03-01T00:00:40;1.50;99.90
23540;DHT22;11947;50.810;4.394;2023-03-01T00:03:06;1.50;99.90
23540;DHT22;11947;50.810;4.394;2023-03-01T00:05:32;1.50;99.90
23540;DHT22;11947;50.810;4.394;2023-03-01T00:07:58;1.60;99.90
23540;DHT22;11947;50.810;4.394;2023-03-01T00:10:23;1.50;99.90
23540;DHT22;11947;50.810;4.394;2023-03-01T00:12:49;1.50;99.90
23540;DHT22;11947;50.810;4.394;2023-03-01T00:15:15;1.50;99.90
23540;DHT22;11947;50.810;4.394;2023-03-01T00:17:40;1.60;99.90
23540;DHT22;11947;50.810;4.394;2023-03-01T00:20:07;1.50;99.90
23540;DHT22;11947;50.810;4.394;2023-03-01T00:22:38;1.40;99.90
23540;DHT22;11947;50.810;4.394;2023-03-01T00:25:04;1.30;99.90
23540;DHT22;11947;50.810;4.394;2023-03-01T00:27:30;1.30;99.90
23540;DHT22;11947;50.810;4.394;2023-03-01T00:29:55;1.20;99.90
23540;DHT22;11947;50.810;4.394;2023-03-01T00:32:21;1.20;99.90
23540;DHT22;11947;50.810;4.394;2023-03-01T00:34:46;1.10;99.90
23540;DHT22;11947;50.810;4.394;2023-03-01T00:37:21;1.20;99.90
23540;DHT22;11947;50.810;4.394;2023-03-01T00:39:48;1.20;99.90
23540;DHT22;11947;50.810;4.394;2023-03-01T00:42:14;1.00;99.90
23540;DHT22;11947;50.810;4.394;2023-03-01T00:44:40;1.10;99.90
23540;DHT22;11947;50.810;4.394;2023-03-01T00:47:05;1.00;99.90
23540;DHT22;11947;50.810;4.394;2023-03-01T00:49:31;1.10;99.90
23540;DHT22;11947;50.810;4.394;2023-03-01T00:51:56;1.10;99.90
23540;DHT22;11947;50.810;4.394;2023-03-01T00:54:22;1.10;99.90
23540;DHT22;11947;50.810;4.394;2023-03-01T00:56:48;1.00;99.90
23540;DHT22;11947;50.810;4.394;2023-03-01T00:59:13;0.90;99.90
23540;DHT22;11947;50.810;4.394;2023-03-01T01:01:39;1.00;99.90
23540;DHT22;11947;50.810;4.394;2023-03-01T01:04:07;1.10;99.90
23540;DHT22;11947;50.810;4.394;2023-03-01T01:06:41;1.10;99.90
23540;DHT22;11947;50.810;4.394;2023-03-01T01:09:12;1.20;99.90
23540;DHT22;11947;50.810;4.394;2023-03-01T01:11:50;1.20;99.90
23540;DHT22;11947;50.810;4.394;2023-03-01T01:14:17;1.20;99.90
23540;DHT22;11947;50.810;4.394;2023-03-01T01:16:43;0.90;99.90
23540;DHT22;11947;50.810;4.394;2023-03-01T01:19:11;1.00;99.90
23540;DHT22;11947;50.810;4.394;2023-03-01T01:21:36;1.00;99.90
23540;DHT22;11947;50.810;4.394;2023-03-01T01:24:03;1.00;99.90
23540;DHT22;11947;50.810;4.394;2023-03-01T01:26:31;1.00;99.90
23540;DHT22;11947;50.810;4.394;2023-03-01T01:28:58;1.00;99.90
23540;DHT22;11947;50.810;4.394;2023-03-01T01:31:24;1.00;99.90
23540;DHT22;11947;50.810;4.394;2023-03-01T01:33:51;1.00;99.90
23540;DHT22;11947;50.810;4.394;2023-03-01T01:36:17;0.90;99.90
23540;DHT22;11947;50.810;4.394;2023-03-01T01:38:43;0.90;99.90
23540;DHT22;11947;50.810;4.394;2023-03-01T01:41:10;0.90;99.90
23540;DHT22;11947;50.810;4.394;2023-03-01T01:43:43;0.90;99.90
23540;DHT22;11947;50.810;4.394;2023-03-01T01:49:02;0.90;99.90
23540;DHT22;11947;50.810;4.394;2023-03-01T01:51:37;1.00;99.90
23540;DHT22;11947;50.810;4.394;2023-03-01T01:54:21;0.80;99.90
23540;DHT22;11947;50.810;4.394;2023-03-01T01:56:58;0.80;99.90
23540;DHT22;11947;50.810;4.394;2023-03-01T01:59:26;0.90;99.90
23540;DHT22;11947;50.810;4.394;2023-03-01T02:01:53;0.80;99.90
23540;DHT22;11947;50.810;4.394;2023-03-01T02:04:20;0.80;99.90
23540;DHT22;11947;50.810;4.394;2023-03-01T02:06:54;0.90;99.90
23540;DHT22;11947;50.810;4.394;2023-03-01T02:09:23;0.80;99.90
23540;DHT22;11947;50.810;4.394;2023-03-01T02:11:50;0.80;99.90
23540;DHT22;11947;50.810;4.394;2023-03-01T02:14:16;0.80;99.90
23540;DHT22;11947;50.810;4.394;2023-03-01T02:16:42;0.90;99.90
23540;DHT22;11947;50.810;4.394;2023-03-01T02:19:17;0.80;99.90
23540;DHT22;11947;50.810;4.394;2023-03-01T02:27:13;0.60;99.90
23540;DHT22;11947;50.810;4.394;2023-03-01T02:29:39;0.60;99.90
23540;DHT22;11947;50.810;4.394;2023-03-01T02:32:05;0.80;99.90
23540;DHT22;11947;50.810;4.394;2023-03-01T02:34:31;0.60;99.90
23540;DHT22;11947;50.810;4.394;2023-03-01T02:37:02;0.70;99.90
23540;DHT22;11947;50.810;4.394;2023-03-01T02:39:48;0.70;99.90
23540;DHT22;11947;50.810;4.394;2023-03-01T02:42:23;0.70;99.90
23540;DHT22;11947;50.810;4.394;2023-03-01T02:44:51;0.80;99.90
23540;DHT22;11947;50.810;4.394;2023-03-01T02:47:16;0.70;99.90
23540;DHT22;11947;50.810;4.394;2023-03-01T02:49:42;0.70;99.90
23540;DHT22;11947;50.810;4.394;2023-03-01T02:57:34;0.50;99.90
23540;DHT22;11947;50.810;4.394;2023-03-01T03:00:07;0.50;99.90
23540;DHT22;11947;50.810;4.394;2023-03-01T03:02:33;0.60;99.90
23540;DHT22;11947;50.810;4.394;2023-03-01T03:07:34;0.30;99.90
23540;DHT22;11947;50.810;4.394;2023-03-01T03:10:03;0.30;99.90
23540;DHT22;11947;50.810;4.394;2023-03-01T03:12:29;0.40;99.90
23540;DHT22;11947;50.810;4.394;2023-03-01T03:14:54;0.40;99.90
23540;DHT22;11947;50.810;4.394;2023-03-01T03:17:20;0.30;99.90
23540;DHT22;11947;50.810;4.394;2023-03-01T03:19:45;0.30;99.90
23540;DHT22;11947;50.810;4.394;2023-03-01T03:22:12;0.30;99.90
23540;DHT22;11947;50.810;4.394;2023-03-01T03:24:40;0.20;99.90
23540;DHT22;11947;50.810;4.394;2023-03-01T03:27:06;0.30;99.90
23540;DHT22;11947;50.810;4.394;2023-03-01T03:29:33;0.40;99.90
23540;DHT22;11947;50.810;4.394;2023-03-01T03:31:59;0.20;99.90
23540;DHT22;11947;50.810;4.394;2023-03-01T03:34:25;0.30;99.90
23540;DHT22;11947;50.810;4.394;2023-03-01T03:36:57;0.20;99.90
23540;DHT22;11947;50.810;4.394;2023-03-01T03:39:27;0.30;99.90
23540;DHT22;11947;50.810;4.394;2023-03-01T03:41:53;0.30;99.90
23540;DHT22;11947;50.810;4.394;2023-03-01T03:44:20;0.30;99.90
23540;DHT22;11947;50.810;4.394;2023-03-01T03:46:45;0.30;99.90
23540;DHT22;11947;50.810;4.394;2023-03-01T03:49:11;0.30;99.90
23540;DHT22;11947;50.810;4.394;2023-03-01T03:51:36;0.30;99.90
23540;DHT22;11947;50.810;4.394;2023-03-01T03:54:02;0.30;99.90
23540;DHT22;11947;50.810;4.394;2023-03-01T03:56:28;0.20;99.90
23540;DHT22;11947;50.810;4.394;2023-03-01T03:58:53;0.20;99.90
23540;DHT22;11947;50.810;4.394;2023-03-01T04:01:20;0.20;99.90
23540;DHT22;11947;50.810;4.394;2023-03-01T04:03:45;0.20;99.90
23540;DHT22;11947;50.810;4.394;2023-03-01T04:06:13;0.10;99.90
23540;DHT22;11947;50.810;4.394;2023-03-01T04:08:39;0.20;99.90
23540;DHT22;11947;50.810;4.394;2023-03-01T04:11:05;0.10;99.90
23540;DHT22;11947;50.810;4.394;2023-03-01T04:13:50;0.20;99.90
23540;DHT22;11947;50.810;4.394;2023-03-01T04:16:16;0.10;99.90
23540;DHT22;11947;50.810;4.394;2023-03-01T04:18:43;0.00;99.90
23540;DHT22;11947;50.810;4.394;2023-03-01T04:21:09;0.10;99.90
23540;DHT22;11947;50.810;4.394;2023-03-01T04:23:36;0.00;99.90
23540;DHT22;11947;50.810;4.394;2023-03-01T04:26:03;0.10;99.90
23540;DHT22;11947;50.810;4.394;2023-03-01T04:30:58;-0.10;99.90
23540;DHT22;11947;50.810;4.394;2023-03-01T04:33:25;0.00;99.90
23540;DHT22;11947;50.810;4.394;2023-03-01T04:35:50;-0.10;99.90
23540;DHT22;11947;50.810;4.394;2023-03-01T04:38:17;-0.10;99.90
23540;DHT22;11947;50.810;4.394;2023-03-01T04:40:43;-0.10;99.90
23540;DHT22;11947;50.810;4.394;2023-03-01T04:43:10;0.00;99.90
23540;DHT22;11947;50.810;4.394;2023-03-01T04:45:36;0.00;99.90
23540;DHT22;11947;50.810;4.394;2023-03-01T04:48:03;0.00;99.90
23540;DHT22;11947;50.810;4.394;2023-03-01T04:50:28;-0.10;99.90
23540;DHT22;11947;50.810;4.394;2023-03-01T04:52:54;-0.20;99.90
23540;DHT22;11947;50.810;4.394;2023-03-01T04:55:27;-0.10;99.90
23540;DHT22;11947;50.810;4.394;2023-03-01T04:57:53;-0.10;99.90
23540;DHT22;11947;50.810;4.394;2023-03-01T05:00:19;-0.20;99.90
23540;DHT22;11947;50.810;4.394;2023-03-01T05:02:58;-0.20;99.90
23540;DHT22;11947;50.810;4.394;2023-03-01T05:05:36;-0.30;99.90
23540;DHT22;11947;50.810;4.394;2023-03-01T05:08:04;-0.30;99.90
23540;DHT22;11947;50.810;4.394;2023-03-01T05:10:31;-0.20;99.90
23540;DHT22;11947;50.810;4.394;2023-03-01T05:12:58;-0.30;99.90
23540;DHT22;11947;50.810;4.394;2023-03-01T05:15:28;-0.30;99.90
23540;DHT22;11947;50.810;4.394;2023-03-01T05:17:56;-0.10;99.90
23540;DHT22;11947;50.810;4.394;2023-03-01T05:20:24;-0.20;99.90
23540;DHT22;11947;50.810;4.394;2023-03-01T05:22:54;-0.30;99.90
23540;DHT22;11947;50.810;4.394;2023-03-01T05:25:20;-0.30;99.90
23540;DHT22;11947;50.810;4.394;2023-03-01T05:27:46;-0.40;99.90
23540;DHT22;11947;50.810;4.394;2023-03-01T05:30:12;-0.40;99.90
23540;DHT22;11947;50.810;4.394;2023-03-01T05:32:46;-0.40;99.90
23540;DHT22;11947;50.810;4.394;2023-03-01T05:35:14;-0.50;99.90
23540;DHT22;11947;50.810;4.394;2023-03-01T05:37:48;-0.50;99.90
23540;DHT22;11947;50.810;4.394;2023-03-01T05:40:19;-0.70;99.90
23540;DHT22;11947;50.810;4.394;2023-03-01T05:42:52;-0.60;99.90
23540;DHT22;11947;50.810;4.394;2023-03-01T05:45:18;-0.60;99.90
23540;DHT22;11947;50.810;4.394;2023-03-01T05:47:46;-0.60;99.90
23540;DHT22;11947;50.810;4.394;2023-03-01T05:50:20;-0.60;99.90
23540;DHT22;11947;50.810;4.394;2023-03-01T05:52:59;-0.60;99.90
23540;DHT22;11947;50.810;4.394;2023-03-01T05:55:25;-0.50;99.90
23540;DHT22;11947;50.810;4.394;2023-03-01T05:57:51;-0.50;99.90
23540;DHT22;11947;50.810;4.394;2023-03-01T06:00:18;-0.50;99.90
23540;DHT22;11947;50.810;4.394;2023-03-01T06:02:45;-0.60;99.90
23540;DHT22;11947;50.810;4.394;2023-03-01T06:05:12;-0.60;99.90
23540;DHT22;11947;50.810;4.394;2023-03-01T06:07:37;-0.60;99.90
23540;DHT22;11947;50.810;4.394;2023-03-01T06:10:04;-0.50;99.90
23540;DHT22;11947;50.810;4.394;2023-03-01T06:12:35;-0.60;99.90
23540;DHT22;11947;50.810;4.394;2023-03-01T06:15:01;-0.70;99.90
23540;DHT22;11947;50.810;4.394;2023-03-01T06:17:30;-0.70;99.90
23540;DHT22;11947;50.810;4.394;2023-03-01T06:19:55;-0.60;99.90
23540;DHT22;11947;50.810;4.394;2023-03-01T06:22:21;-0.70;99.90
23540;DHT22;11947;50.810;4.394;2023-03-01T06:24:47;-0.60;99.90
23540;DHT22;11947;50.810;4.394;2023-03-01T06:27:12;-0.50;99.90
23540;DHT22;11947;50.810;4.394;2023-03-01T06:29:38;-0.50;99.90
23540;DHT22;11947;50.810;4.394;2023-03-01T06:32:04;-0.50;99.90
23540;DHT22;11947;50.810;4.394;2023-03-01T06:34:30;-0.40;99.90
23540;DHT22;11947;50.810;4.394;2023-03-01T06:36:55;-0.50;99.90
23540;DHT22;11947;50.810;4.394;2023-03-01T06:39:21;-0.50;99.90
23540;DHT22;11947;50.810;4.394;2023-03-01T06:41:46;-0.50;99.90
23540;DHT22;11947;50.810;4.394;2023-03-01T06:44:12;-0.50;99.90
23540;DHT22;11947;50.810;4.394;2023-03-01T06:46:41;-0.60;99.90
23540;DHT22;11947;50.810;4.394;2023-03-01T06:49:06;-0.60;99.90
23540;DHT22;11947;50.810;4.394;2023-03-01T06:51:35;-0.50;99.90
23540;DHT22;11947;50.810;4.394;2023-03-01T06:54:03;-0.50;99.90
23540;DHT22;11947;50.810;4.394;2023-03-01T06:56:29;-0.50;99.90
23540;DHT22;11947;50.810;4.394;2023-03-01T06:58:54;-0.50;99.90
23540;DHT22;11947;50.810;4.394;2023-03-01T07:01:20;-0.50;99.90
23540;DHT22;11947;50.810;4.394;2023-03-01T07:03:45;-0.30;99.90
23540;DHT22;11947;50.810;4.394;2023-03-01T07:06:11;-0.20;99.90
23540;DHT22;11947;50.810;4.394;2023-03-01T07:08:37;-0.40;99.90
23540;DHT22;11947;50.810;4.394;2023-03-01T07:11:02;-0.40;99.90
23540;DHT22;11947;50.810;4.394;2023-03-01T07:13:29;-0.30;99.90
23540;DHT22;11947;50.810;4.394;2023-03-01T07:15:55;-0.40;99.90
23540;DHT22;11947;50.810;4.394;2023-03-01T07:18:20;-0.20;99.90
23540;DHT22;11947;50.810;4.394;2023-03-01T07:20:46;0.00;99.90
23540;DHT22;11947;50.810;4.394;2023-03-01T07:23:12;0.00;99.90
23540;DHT22;11947;50.810;4.394;2023-03-01T07:25:37;0.00;99.90
23540;DHT22;11947;50.810;4.394;2023-03-01T07:28:03;0.10;99.90
23540;DHT22;11947;50.810;4.394;2023-03-01T07:30:29;0.20;99.90
23540;DHT22;11947;50.810;4.394;2023-03-01T07:32:55;0.40;99.90
23540;DHT22;11947;50.810;4.394;2023-03-01T07:35:22;0.50;99.90
23540;DHT22;11947;50.810;4.394;2023-03-01T07:37:47;0.50;99.90
23540;DHT22;11947;50.810;4.394;2023-03-01T07:40:13;0.70;99.90
23540;DHT22;11947;50.810;4.394;2023-03-01T07:42:39;1.00;99.90
23540;DHT22;11947;50.810;4.394;2023-03-01T07:45:05;1.10;99.90
23540;DHT22;11947;50.810;4.394;2023-03-01T07:47:31;1.30;99.90
23540;DHT22;11947;50.810;4.394;2023-03-01T07:49:57;1.40;99.90
23540;DHT22;11947;50.810;4.394;2023-03-01T07:52:22;1.50;99.90
23540;DHT22;11947;50.810;4.394;2023-03-01T07:54:48;1.50;99.90
23540;DHT22;11947;50.810;4.394;2023-03-01T07:57:14;1.80;99.90
23540;DHT22;11947;50.810;4.394;2023-03-01T07:59:40;1.90;99.90
23540;DHT22;11947;50.810;4.394;2023-03-01T08:02:05;1.90;99.90
23540;DHT22;11947;50.810;4.394;2023-03-01T08:04:32;1.80;99.90
23540;DHT22;11947;50.810;4.394;2023-03-01T08:07:04;2.10;99.90
23540;DHT22;11947;50.810;4.394;2023-03-01T08:09:29;2.10;99.90
23540;DHT22;11947;50.810;4.394;2023-03-01T08:11:56;2.20;99.90
23540;DHT22;11947;50.810;4.394;2023-03-01T08:14:24;2.30;99.90
23540;DHT22;11947;50.810;4.394;2023-03-01T08:16:50;2.40;99.90
23540;DHT22;11947;50.810;4.394;2023-03-01T08:19:16;2.40;99.90
23540;DHT22;11947;50.810;4.394;2023-03-01T08:21:42;2.40;99.90
23540;DHT22;11947;50.810;4.394;2023-03-01T08:24:08;2.40;99.90
23540;DHT22;11947;50.810;4.394;2023-03-01T08:26:35;2.60;99.90
23540;DHT22;11947;50.810;4.394;2023-03-01T08:29:02;2.60;99.90
23540;DHT22;11947;50.810;4.394;2023-03-01T08:31:35;2.50;99.90
23540;DHT22;11947;50.810;4.394;2023-03-01T08:34:04;2.50;99.90
23540;DHT22;11947;50.810;4.394;2023-03-01T08:36:32;2.50;99.90
23540;DHT22;11947;50.810;4.394;2023-03-01T08:38:58;2.30;99.90
23540;DHT22;11947;50.810;4.394;2023-03-01T08:41:24;2.20;99.90
23540;DHT22;11947;50.810;4.394;2023-03-01T08:43:50;2.20;99.90
23540;DHT22;11947;50.810;4.394;2023-03-01T08:46:16;2.30;99.90
23540;DHT22;11947;50.810;4.394;2023-03-01T08:48:42;2.60;99.90
23540;DHT22;11947;50.810;4.394;2023-03-01T08:51:19;2.60;99.90
23540;DHT22;11947;50.810;4.394;2023-03-01T08:53:45;2.90;99.90
23540;DHT22;11947;50.810;4.394;2023-03-01T08:56:11;3.00;99.90
23540;DHT22;11947;50.810;4.394;2023-03-01T08:58:37;3.20;99.90
23540;DHT22;11947;50.810;4.394;2023-03-01T09:01:13;3.30;99.90
23540;DHT22;11947;50.810;4.394;2023-03-01T09:03:39;3.40;99.90
23540;DHT22;11947;50.810;4.394;2023-03-01T09:06:06;3.50;99.90
23540;DHT22;11947;50.810;4.394;2023-03-01T09:08:35;3.80;99.90
23540;DHT22;11947;50.810;4.394;2023-03-01T09:11:02;4.00;99.90
23540;DHT22;11947;50.810;4.394;2023-03-01T09:13:28;4.20;99.90
23540;DHT22;11947;50.810;4.394;2023-03-01T09:15:57;4.30;99.90
23540;DHT22;11947;50.810;4.394;2023-03-01T09:18:22;4.30;99.90
23540;DHT22;11947;50.810;4.394;2023-03-01T09:20:48;4.40;99.90
23540;DHT22;11947;50.810;4.394;2023-03-01T09:23:13;4.50;99.90
23540;DHT22;11947;50.810;4.394;2023-03-01T09:25:39;4.70;99.90
23540;DHT22;11947;50.810;4.394;2023-03-01T09:28:04;4.50;99.90
23540;DHT22;11947;50.810;4.394;2023-03-01T09:30:30;4.50;99.90
23540;DHT22;11947;50.810;4.394;2023-03-01T09:32:59;4.60;99.90
23540;DHT22;11947;50.810;4.394;2023-03-01T09:35:24;4.60;99.90
23540;DHT22;11947;50.810;4.394;2023-03-01T09:37:50;4.70;99.90
23540;DHT22;11947;50.810;4.394;2023-03-01T09:40:20;4.80;99.90
23540;DHT22;11947;50.810;4.394;2023-03-01T09:42:55;5.00;99.90
23540;DHT22;11947;50.810;4.394;2023-03-01T09:45:35;5.20;99.90
23540;DHT22;11947;50.810;4.394;2023-03-01T09:48:04;5.20;99.90
23540;DHT22;11947;50.810;4.394;2023-03-01T09:50:39;5.40;99.90
23540;DHT22;11947;50.810;4.394;2023-03-01T09:53:18;5.50;99.90
23540;DHT22;11947;50.810;4.394;2023-03-01T09:55:46;5.60;99.90
23540;DHT22;11947;50.810;4.394;2023-03-01T09:58:39;5.70;99.90
23540;DHT22;11947;50.810;4.394;2023-03-01T10:04:27;5.70;99.90
23540;DHT22;11947;50.810;4.394;2023-03-01T10:09:41;6.00;99.90
23540;DHT22;11947;50.810;4.394;2023-03-01T10:12:12;6.20;99.90
23540;DHT22;11947;50.810;4.394;2023-03-01T10:14:46;6.40;99.90
23540;DHT22;11947;50.810;4.394;2023-03-01T10:17:32;6.50;99.90
23540;DHT22;11947;50.810;4.394;2023-03-01T10:20:23;6.70;99.90
23540;DHT22;11947;50.810;4.394;2023-03-01T10:22:49;6.80;99.90
23540;DHT22;11947;50.810;4.394;2023-03-01T10:27:53;7.20;99.90
23540;DHT22;11947;50.810;4.394;2023-03-01T10:32:49;7.40;99.90
23540;DHT22;11947;50.810;4.394;2023-03-01T10:35:22;7.30;99.90
23540;DHT22;11947;50.810;4.394;2023-03-01T10:38:07;7.30;99.90
23540;DHT22;11947;50.810;4.394;2023-03-01T10:40:34;7.50;99.90
23540;DHT22;11947;50.810;4.394;2023-03-01T10:43:05;7.50;99.90
23540;DHT22;11947;50.810;4.394;2023-03-01T10:48:23;7.80;99.90
23540;DHT22;11947;50.810;4.394;2023-03-01T10:53:40;8.90;99.90
23540;DHT22;11947;50.810;4.394;2023-03-01T10:56:11;9.30;99.90
23540;DHT22;11947;50.810;4.394;2023-03-01T11:01:26;10.30;99.90
23540;DHT22;11947;50.810;4.394;2023-03-01T11:06:37;11.60;99.50
23540;DHT22;11947;50.810;4.394;2023-03-01T11:11:52;15.70;93.80
23540;DHT22;11947;50.810;4.394;2023-03-01T11:14:22;16.40;90.20
23540;DHT22;11947;50.810;4.394;2023-03-01T11:17:01;16.40;86.70
23540;DHT22;11947;50.810;4.394;2023-03-01T11:19:27;15.40;86.60
23540;DHT22;11947;50.810;4.394;2023-03-01T11:22:07;13.80;88.60
23540;DHT22;11947;50.810;4.394;2023-03-01T11:24:48;12.80;90.60
23540;DHT22;11947;50.810;4.394;2023-03-01T11:27:25;12.60;91.00
23540;DHT22;11947;50.810;4.394;2023-03-01T11:35:30;12.10;91.00
23540;DHT22;11947;50.810;4.394;2023-03-01T11:51:40;19.70;72.50
23540;DHT22;11947;50.810;4.394;2023-03-01T11:54:22;20.50;67.90
23540;DHT22;11947;50.810;4.394;2023-03-01T11:57:12;22.10;64.30
23540;DHT22;11947;50.810;4.394;2023-03-01T12:02:32;21.00;60.80
23540;DHT22;11947;50.810;4.394;2023-03-01T12:10:29;23.60;55.70
23540;DHT22;11947;50.810;4.394;2023-03-01T12:13:23;24.40;54.80
23540;DHT22;11947;50.810;4.394;2023-03-01T12:16:17;25.70;53.10
23540;DHT22;11947;50.810;4.394;2023-03-01T12:19:06;26.50;50.40
23540;DHT22;11947;50.810;4.394;2023-03-01T12:29:59;25.80;48.60
23540;DHT22;11947;50.810;4.394;2023-03-01T12:35:46;26.00;48.50
23540;DHT22;11947;50.810;4.394;2023-03-01T12:38:50;24.30;48.00
23540;DHT22;11947;50.810;4.394;2023-03-01T12:50:41;25.00;47.90
23540;DHT22;11947;50.810;4.394;2023-03-01T12:53:24;25.90;47.00
23540;DHT22;11947;50.810;4.394;2023-03-01T12:55:51;26.40;47.70
23540;DHT22;11947;50.810;4.394;2023-03-01T13:01:45;29.10;45.40
23540;DHT22;11947;50.810;4.394;2023-03-01T13:17:47;28.20;43.40
23540;DHT22;11947;50.810;4.394;2023-03-01T13:20:15;26.90;44.10
23540;DHT22;11947;50.810;4.394;2023-03-01T13:22:42;27.10;43.70
23540;DHT22;11947;50.810;4.394;2023-03-01T13:25:15;27.60;43.30
23540;DHT22;11947;50.810;4.394;2023-03-01T13:27:42;27.30;42.70
23540;DHT22;11947;50.810;4.394;2023-03-01T13:35:54;25.30;45.10
23540;DHT22;11947;50.810;4.394;2023-03-01T13:38:54;26.00;45.90
23540;DHT22;11947;50.810;4.394;2023-03-01T13:41:56;27.10;44.20
23540;DHT22;11947;50.810;4.394;2023-03-01T13:49:43;28.10;43.20
23540;DHT22;11947;50.810;4.394;2023-03-01T13:55:47;25.80;44.50
23540;DHT22;11947;50.810;4.394;2023-03-01T13:57:59;25.00;44.40
23540;DHT22;11947;50.810;4.394;2023-03-01T14:00:35;23.60;45.60
23540;DHT22;11947;50.810;4.394;2023-03-01T14:05:34;21.10;48.10
23540;DHT22;11947;50.810;4.394;2023-03-01T14:08:02;19.80;49.70
23540;DHT22;11947;50.810;4.394;2023-03-01T14:10:49;18.70;51.50
23540;DHT22;11947;50.810;4.394;2023-03-01T14:13:33;19.00;52.00
23540;DHT22;11947;50.810;4.394;2023-03-01T14:16:24;18.50;53.20
23540;DHT22;11947;50.810;4.394;2023-03-01T14:21:29;17.60;54.10
23540;DHT22;11947;50.810;4.394;2023-03-01T14:23:55;17.40;54.60
23540;DHT22;11947;50.810;4.394;2023-03-01T14:26:22;16.90;55.20
23540;DHT22;11947;50.810;4.394;2023-03-01T14:28:49;16.10;56.40
23540;DHT22;11947;50.810;4.394;2023-03-01T14:31:42;15.20;58.10
23540;DHT22;11947;50.810;4.394;2023-03-01T14:34:16;14.10;61.90
23540;DHT22;11947;50.810;4.394;2023-03-01T14:36:43;14.20;60.60
23540;DHT22;11947;50.810;4.394;2023-03-01T14:39:23;13.30;61.60
23540;DHT22;11947;50.810;4.394;2023-03-01T14:41:49;13.00;62.90
23540;DHT22;11947;50.810;4.394;2023-03-01T14:44:22;13.10;63.40
23540;DHT22;11947;50.810;4.394;2023-03-01T14:46:52;12.70;64.80
23540;DHT22;11947;50.810;4.394;2023-03-01T14:49:25;12.40;65.70
23540;DHT22;11947;50.810;4.394;2023-03-01T14:51:58;13.00;65.30
23540;DHT22;11947;50.810;4.394;2023-03-01T14:54:44;12.70;64.10
23540;DHT22;11947;50.810;4.394;2023-03-01T14:57:26;12.60;64.70
23540;DHT22;11947;50.810;4.394;2023-03-01T14:59:58;12.40;66.10
23540;DHT22;11947;50.810;4.394;2023-03-01T15:02:26;12.90;65.60
23540;DHT22;11947;50.810;4.394;2023-03-01T15:04:56;13.50;64.10
23540;DHT22;11947;50.810;4.394;2023-03-01T15:07:28;13.20;63.00
23540;DHT22;11947;50.810;4.394;2023-03-01T15:09:54;13.50;63.80
23540;DHT22;11947;50.810;4.394;2023-03-01T15:12:36;13.50;63.60
23540;DHT22;11947;50.810;4.394;2023-03-01T15:17:58;14.70;61.90
23540;DHT22;11947;50.810;4.394;2023-03-01T15:20:26;13.90;62.60
23540;DHT22;11947;50.810;4.394;2023-03-01T15:22:53;12.70;65.50
23540;DHT22;11947;50.810;4.394;2023-03-01T15:25:23;11.60;68.10
23540;DHT22;11947;50.810;4.394;2023-03-01T15:27:51;10.50;70.70
23540;DHT22;11947;50.810;4.394;2023-03-01T15:30:27;9.90;72.90
23540;DHT22;11947;50.810;4.394;2023-03-01T15:33:19;9.30;75.20
23540;DHT22;11947;50.810;4.394;2023-03-01T15:35:49;9.10;76.60
23540;DHT22;11947;50.810;4.394;2023-03-01T15:38:32;9.10;77.00
23540;DHT22;11947;50.810;4.394;2023-03-01T15:41:02;8.80;78.10
23540;DHT22;11947;50.810;4.394;2023-03-01T15:43:43;8.60;79.10
23540;DHT22;11947;50.810;4.394;2023-03-01T15:46:19;8.10;79.70
23540;DHT22;11947;50.810;4.394;2023-03-01T15:48:49;8.10;81.80
23540;DHT22;11947;50.810;4.394;2023-03-01T15:51:18;7.80;82.50
23540;DHT22;11947;50.810;4.394;2023-03-01T15:53:50;7.60;82.60
23540;DHT22;11947;50.810;4.394;2023-03-01T15:56:16;7.50;83.10
23540;DHT22;11947;50.810;4.394;2023-03-01T15:58:42;7.50;84.40
23540;DHT22;11947;50.810;4.394;2023-03-01T16:01:13;7.50;83.60
23540;DHT22;11947;50.810;4.394;2023-03-01T16:03:39;7.50;83.60
23540;DHT22;11947;50.810;4.394;2023-03-01T16:06:05;7.40;84.10
23540;DHT22;11947;50.810;4.394;2023-03-01T16:08:31;7.40;84.50
23540;DHT22;11947;50.810;4.394;2023-03-01T16:10:57;7.50;83.70
23540;DHT22;11947;50.810;4.394;2023-03-01T16:13:23;7.20;84.90
23540;DHT22;11947;50.810;4.394;2023-03-01T16:15:50;7.10;84.90
23540;DHT22;11947;50.810;4.394;2023-03-01T16:18:16;7.00;84.70
23540;DHT22;11947;50.810;4.394;2023-03-01T16:20:42;6.90;84.00
23540;DHT22;11947;50.810;4.394;2023-03-01T16:23:10;6.90;84.50
23540;DHT22;11947;50.810;4.394;2023-03-01T16:25:36;6.90;84.50
23540;DHT22;11947;50.810;4.394;2023-03-01T16:28:03;6.90;84.70
23540;DHT22;11947;50.810;4.394;2023-03-01T16:30:34;6.80;86.60
23540;DHT22;11947;50.810;4.394;2023-03-01T16:33:01;6.90;86.60
23540;DHT22;11947;50.810;4.394;2023-03-01T16:35:27;6.80;86.00
23540;DHT22;11947;50.810;4.394;2023-03-01T16:37:53;6.70;86.20
23540;DHT22;11947;50.810;4.394;2023-03-01T16:40:23;6.70;86.60
23540;DHT22;11947;50.810;4.394;2023-03-01T16:42:50;6.50;86.20
23540;DHT22;11947;50.810;4.394;2023-03-01T16:45:17;6.50;86.60
23540;DHT22;11947;50.810;4.394;2023-03-01T16:47:43;6.50;86.50
23540;DHT22;11947;50.810;4.394;2023-03-01T16:50:09;6.50;86.90
23540;DHT22;11947;50.810;4.394;2023-03-01T16:52:35;6.30;87.90
23540;DHT22;11947;50.810;4.394;2023-03-01T16:55:03;6.30;88.40
23540;DHT22;11947;50.810;4.394;2023-03-01T16:57:29;6.30;87.70
23540;DHT22;11947;50.810;4.394;2023-03-01T16:59:55;6.40;88.50
23540;DHT22;11947;50.810;4.394;2023-03-01T17:02:21;6.20;88.90
23540;DHT22;11947;50.810;4.394;2023-03-01T17:04:54;6.30;90.20
23540;DHT22;11947;50.810;4.394;2023-03-01T17:07:19;6.00;89.70
23540;DHT22;11947;50.810;4.394;2023-03-01T17:09:45;6.20;89.70
23540;DHT22;11947;50.810;4.394;2023-03-01T17:12:15;6.10;90.30
23540;DHT22;11947;50.810;4.394;2023-03-01T17:14:41;6.10;90.50
23540;DHT22;11947;50.810;4.394;2023-03-01T17:17:10;6.20;90.40
23540;DHT22;11947;50.810;4.394;2023-03-01T17:19:37;6.00;90.60
23540;DHT22;11947;50.810;4.394;2023-03-01T17:22:06;5.90;90.70
23540;DHT22;11947;50.810;4.394;2023-03-01T17:24:37;5.80;91.20
23540;DHT22;11947;50.810;4.394;2023-03-01T17:27:03;5.80;91.30
23540;DHT22;11947;50.810;4.394;2023-03-01T17:29:29;5.90;91.50
23540;DHT22;11947;50.810;4.394;2023-03-01T17:31:55;5.70;91.50
23540;DHT22;11947;50.810;4.394;2023-03-01T17:34:21;5.70;91.90
23540;DHT22;11947;50.810;4.394;2023-03-01T17:36:48;5.60;91.80
23540;DHT22;11947;50.810;4.394;2023-03-01T17:39:15;5.70;91.90
23540;DHT22;11947;50.810;4.394;2023-03-01T17:41:41;5.60;92.10
23540;DHT22;11947;50.810;4.394;2023-03-01T17:44:07;5.60;92.30
23540;DHT22;11947;50.810;4.394;2023-03-01T17:46:33;5.50;92.70
23540;DHT22;11947;50.810;4.394;2023-03-01T17:48:58;5.60;93.30
23540;DHT22;11947;50.810;4.394;2023-03-01T17:51:24;5.50;93.80
23540;DHT22;11947;50.810;4.394;2023-03-01T17:53:50;5.50;93.70
23540;DHT22;11947;50.810;4.394;2023-03-01T17:56:15;5.50;93.90
23540;DHT22;11947;50.810;4.394;2023-03-01T17:58:41;5.50;93.70
23540;DHT22;11947;50.810;4.394;2023-03-01T18:01:09;5.60;93.90
23540;DHT22;11947;50.810;4.394;2023-03-01T18:03:35;5.50;93.80